Etusivu
METAR-TAF:

METAR-TAF

Lentoasemat :

Lutselk'e, Luoteisterritoriot, Kanada

Leveyspiiri: 62-25N, Pituuspiiri: 110-40W, korkeus merenpinnasta: 179 m

Tämänhetkinen sää

Tämä raportti tehtiin 8 tuntia ja 59 minuuttia sitten, kello 01.00 UTC
Tuuli 2 kn etelästä/lounaasta
Lämpötila -26°C
Kosteus 62%
Ilmanpaine 1037 hPa
Näkyvyys: 40.2 km
selkeää

METAR: CYLK 250100Z 21002KT 25SM SKC M26/M31 A3062 RMK 0/48/SNW CVR MUCH LOOSE LAST STFD OBS NEXT 251500 SLP402

Aika: 02:59 (09:59 UTC)

Sääennuste

Tämä raportti tehtiin 15 tuntia ja 21 minuuttia sitten, kello 18.38 UTC
Ennuste voimassa 24. päivästä klo 19 UTC - 25. päivään klo 01 UTC
Tuuli 8 kn idästä/koillisesta
Näkyvyys: 10 km
Hajanaisia pilviä 10000 ft:n korkeudessa
Ajoittain
24. päivästä klo 19 UTC - 25. päivään klo 01 UTC
Tuuli 3 kn eri suunnista

TAF: CYLK 241838Z 2419/2501 07008KT P6SM SCT100 TEMPO 2419/2501 VRB03KT RMK NXT FCST WILL BE ISSUED AT 251645Z

Säähavainnot ja -ennusteet yli 4000 lentoasemalta (METAR- ja TAF-raportit).

Käytössä olevat sääasemat on merkitty karttaan keltaisilla ja punaisilla pisteillä.

Aseta hiiri pisteen päälle nähdäksesi sääaseman nimen.

Klikkaa sitten nähdäksesi säähavainnot ja -ennusteet.

Kartan vaihtaminen: klikkaa mustalla rastilla varustettuja vihreitä pisteitä, niin voit zoomata sisään; viivalla varustettua vihreää pistettä, niin voit zoomata ulos tai vihreitä nuolia, niin pääset viereisille kartoille.


METAR-TAF: